Time;durP1;ratioP1;P1;durP2;ratioP2;P2;SDS_P1;SDS_P2;PMS_P1;PMS_P2;Temp;Humidity;BMP_temperature;BMP_pressure;BME280_temperature;BME280_humidity;BME280_pressure;Samples;Min_cycle;Max_cycle;Signal;HPM_P1;HPM_P2
2022/08/21 00:01:28;;;;;;;7.00;1.40;;;14.40;99.90;;;;;;5053620;28;20498;-71
2022/08/21 00:03:54;;;;;;;5.88;1.52;;;14.30;99.90;;;;;;5053333;28;20035;-71
2022/08/21 00:06:21;;;;;;;6.57;2.17;;;14.30;99.90;;;;;;5053552;28;20096;-71
2022/08/21 00:08:46;;;;;;;6.32;1.40;;;14.30;99.90;;;;;;5053511;28;20025;-71
2022/08/21 00:11:13;;;;;;;4.15;1.20;;;14.30;99.90;;;;;;5053469;28;20013;-71
2022/08/21 00:13:39;;;;;;;7.45;1.33;;;14.30;99.90;;;;;;5053403;28;20075;-71
2022/08/21 00:16:04;;;;;;;4.25;1.15;;;14.30;99.90;;;;;;5053643;28;20039;-71
2022/08/21 00:18:30;;;;;;;3.42;0.90;;;14.30;99.90;;;;;;5053993;28;20021;-71
2022/08/21 00:20:56;;;;;;;5.13;1.00;;;14.20;99.90;;;;;;5053340;28;20100;-71
2022/08/21 00:23:22;;;;;;;3.20;0.93;;;14.20;99.90;;;;;;5053098;28;20033;-71
2022/08/21 00:25:47;;;;;;;2.30;0.82;;;14.20;99.90;;;;;;5052139;28;20363;-71
2022/08/21 00:28:14;;;;;;;3.30;1.15;;;14.20;99.90;;;;;;5053570;28;20391;-71
2022/08/21 00:30:40;;;;;;;3.20;0.90;;;14.10;99.90;;;;;;5053236;28;20497;-71
2022/08/21 00:33:06;;;;;;;2.95;0.82;;;14.10;99.90;;;;;;5053227;28;20028;-71
2022/08/21 00:35:36;;;;;;;6.82;1.08;;;14.10;99.90;;;;;;5053258;28;20103;-71
2022/08/21 00:38:03;;;;;;;2.40;0.80;;;14.10;99.90;;;;;;5053431;28;20500;-71
2022/08/21 00:40:35;;;;;;;2.65;0.88;;;14.10;99.90;;;;;;5053232;28;20156;-71
2022/08/21 00:43:03;;;;;;;5.25;1.27;;;14.10;99.90;;;;;;5053416;28;20141;-71
2022/08/21 00:45:29;;;;;;;11.18;1.80;;;14.00;99.90;;;;;;5053564;28;20017;-71
2022/08/21 00:47:55;;;;;;;5.03;1.13;;;14.10;99.90;;;;;;5053355;28;20029;-71
2022/08/21 00:50:22;;;;;;;3.70;1.08;;;14.10;99.90;;;;;;5053134;28;20486;-71
2022/08/21 00:52:49;;;;;;;3.78;1.23;;;14.00;99.90;;;;;;5053056;28;20029;-71
2022/08/21 00:55:16;;;;;;;3.65;1.08;;;14.00;99.90;;;;;;5053091;28;20072;-71
2022/08/21 00:57:50;;;;;;;4.38;1.30;;;14.00;99.90;;;;;;5051844;28;20026;-71
2022/08/21 01:00:22;;;;;;;7.40;1.75;;;14.00;99.90;;;;;;5053186;28;20052;-71
2022/08/21 01:02:47;;;;;;;3.75;1.05;;;14.00;99.90;;;;;;5052860;28;20033;-71
2022/08/21 01:05:14;;;;;;;3.40;1.58;;;14.00;99.90;;;;;;5053020;28;20110;-71
2022/08/21 01:07:41;;;;;;;3.08;1.00;;;13.90;99.90;;;;;;5052941;28;20526;-71
2022/08/21 01:10:08;;;;;;;4.35;0.90;;;13.90;99.90;;;;;;5053570;28;20028;-71
2022/08/21 01:12:34;;;;;;;3.33;1.13;;;13.90;99.90;;;;;;5055798;28;20017;-71
2022/08/21 01:15:03;;;;;;;4.10;1.20;;;13.90;99.90;;;;;;5055523;28;20032;-71
2022/08/21 01:17:28;;;;;;;3.08;1.88;;;13.80;99.90;;;;;;5056634;28;20048;-71
2022/08/21 01:19:58;;;;;;;2.80;1.10;;;13.80;99.90;;;;;;5056477;28;20025;-71
2022/08/21 01:22:24;;;;;;;2.33;0.82;;;13.80;99.90;;;;;;5054982;28;20501;-71
2022/08/21 01:24:49;;;;;;;2.63;1.38;;;13.80;99.90;;;;;;5056490;28;20100;-71
2022/08/21 01:27:16;;;;;;;0.98;0.80;;;13.80;99.90;;;;;;5056415;28;20485;-71
2022/08/21 01:29:58;;;;;;;3.13;0.88;;;13.70;99.90;;;;;;5056319;28;20029;-71
2022/08/21 01:32:23;;;;;;;6.28;1.13;;;13.70;99.90;;;;;;5056807;28;20466;-71
2022/08/21 01:34:50;;;;;;;8.05;1.90;;;13.70;99.90;;;;;;5056370;28;20017;-71
2022/08/21 01:37:16;;;;;;;3.90;1.13;;;13.80;99.90;;;;;;5056338;28;20481;-71
2022/08/21 01:39:42;;;;;;;3.35;1.02;;;13.70;99.90;;;;;;5056279;28;20017;-71
2022/08/21 01:42:08;;;;;;;2.30;1.40;;;13.70;99.90;;;;;;5055957;28;20017;-71
2022/08/21 01:44:34;;;;;;;7.20;1.58;;;13.70;99.90;;;;;;5056412;28;20052;-71
2022/08/21 01:47:02;;;;;;;3.25;1.20;;;13.70;99.90;;;;;;5056079;28;20029;-71
2022/08/21 01:49:28;;;;;;;5.20;1.33;;;13.80;99.90;;;;;;5054816;28;20032;-71
2022/08/21 01:51:54;;;;;;;2.05;1.05;;;13.80;99.90;;;;;;5056002;28;20409;-71
2022/08/21 01:54:19;;;;;;;4.13;1.83;;;13.70;99.90;;;;;;5055887;28;20021;-71
2022/08/21 01:56:49;;;;;;;2.80;1.63;;;13.70;99.90;;;;;;5056418;28;20493;-71
2022/08/21 01:59:15;;;;;;;4.50;1.63;;;13.70;99.90;;;;;;5056071;28;20033;-71
2022/08/21 02:01:41;;;;;;;5.15;1.10;;;13.70;99.90;;;;;;5055965;28;20397;-71
2022/08/21 02:04:08;;;;;;;9.40;2.45;;;13.70;99.90;;;;;;5055616;28;20017;-71
2022/08/21 02:06:34;;;;;;;7.45;1.67;;;13.70;99.90;;;;;;5055681;28;20014;-71
2022/08/21 02:09:01;;;;;;;3.75;1.30;;;13.70;99.90;;;;;;5056251;28;20115;-71
2022/08/21 02:11:27;;;;;;;3.83;1.80;;;13.60;99.90;;;;;;5055724;28;20025;-71
2022/08/21 02:13:52;;;;;;;6.53;1.95;;;13.60;99.90;;;;;;5054230;28;20051;-71
2022/08/21 02:16:18;;;;;;;4.88;2.53;;;13.60;99.90;;;;;;5055557;28;20029;-71
2022/08/21 02:18:44;;;;;;;4.75;2.00;;;13.60;99.90;;;;;;5055416;28;20561;-71
2022/08/21 02:21:10;;;;;;;7.20;2.10;;;13.60;99.90;;;;;;5055789;28;20036;-71
2022/08/21 02:23:36;;;;;;;3.47;1.95;;;13.60;99.90;;;;;;5054976;28;20029;-72
2022/08/21 02:26:04;;;;;;;3.28;1.75;;;13.60;99.90;;;;;;5054168;28;20025;-71
2022/08/21 02:28:31;;;;;;;4.07;1.85;;;13.50;99.90;;;;;;5055108;28;20040;-71
2022/08/21 02:30:57;;;;;;;5.55;2.28;;;13.50;99.90;;;;;;5055064;28;20017;-71
2022/08/21 02:33:23;;;;;;;3.60;1.80;;;13.50;99.90;;;;;;5053715;28;20017;-71
2022/08/21 02:35:50;;;;;;;4.97;1.55;;;13.50;99.90;;;;;;5055125;28;20520;-71
2022/08/21 02:38:19;;;;;;;5.68;2.30;;;13.50;99.90;;;;;;5054963;28;20082;-71
2022/08/21 02:40:48;;;;;;;9.10;2.20;;;13.40;99.90;;;;;;5055152;28;20478;-71
2022/08/21 02:43:14;;;;;;;;;;;13.50;99.90;;;;;;5055206;28;20047;-71
2022/08/21 02:45:41;;;;;;;4.18;1.77;;;13.50;99.90;;;;;;5054861;28;20037;-71
2022/08/21 02:48:09;;;;;;;4.28;2.00;;;13.40;99.90;;;;;;5054892;28;20013;-71
2022/08/21 02:50:37;;;;;;;;;;;13.40;99.90;;;;;;5055146;28;20497;-71
2022/08/21 02:53:05;;;;;;;23.27;3.55;;;13.40;99.90;;;;;;5054721;28;19904;-71
2022/08/21 02:55:32;;;;;;;5.38;2.38;;;13.40;99.90;;;;;;5054723;28;20044;-71
2022/08/21 02:57:58;;;;;;;5.72;1.58;;;13.40;99.90;;;;;;5053376;28;20490;-71
2022/08/21 03:00:26;;;;;;;4.60;2.50;;;13.40;99.90;;;;;;5054777;28;20532;-71
2022/08/21 03:02:53;;;;;;;7.00;2.50;;;13.30;99.90;;;;;;5054495;28;20028;-71
2022/08/21 03:05:19;;;;;;;5.53;2.35;;;13.30;99.90;;;;;;5054539;28;20096;-71
2022/08/21 03:07:46;;;;;;;9.52;2.17;;;13.30;99.90;;;;;;5054455;28;20022;-71
2022/08/21 03:10:13;;;;;;;5.97;1.95;;;13.40;99.90;;;;;;5054292;28;20045;-71
2022/08/21 03:12:39;;;;;;;4.38;1.88;;;13.30;99.90;;;;;;5054253;28;20552;-71
2022/08/21 03:15:11;;;;;;;4.78;2.13;;;13.30;99.90;;;;;;5054850;28;20029;-71
2022/08/21 03:17:37;;;;;;;4.95;1.80;;;13.30;99.90;;;;;;5053023;28;20035;-71
2022/08/21 03:20:04;;;;;;;4.07;1.85;;;13.30;99.90;;;;;;5054161;28;20025;-71
2022/08/21 03:22:30;;;;;;;6.22;2.00;;;13.20;99.90;;;;;;5053878;28;20064;-71
2022/08/21 03:24:57;;;;;;;4.40;1.67;;;13.30;99.90;;;;;;5054078;28;20017;-71
2022/08/21 03:27:26;;;;;;;7.28;2.25;;;13.20;99.90;;;;;;5054081;28;20076;-71
2022/08/21 03:29:52;;;;;;;4.07;2.03;;;13.20;99.90;;;;;;5053998;28;20086;-71
2022/08/21 03:32:19;;;;;;;4.32;1.88;;;13.10;99.90;;;;;;5052187;28;20021;-71
2022/08/21 03:34:45;;;;;;;5.28;2.42;;;13.10;99.90;;;;;;5053950;28;20112;-71
2022/08/21 03:37:11;;;;;;;4.53;2.00;;;13.10;99.90;;;;;;5052644;28;20025;-71
2022/08/21 03:39:36;;;;;;;4.10;1.73;;;13.10;99.90;;;;;;5054486;28;20036;-71
2022/08/21 03:42:02;;;;;;;5.68;2.20;;;13.00;99.90;;;;;;5052407;28;20021;-71
2022/08/21 03:44:29;;;;;;;7.07;2.17;;;13.10;99.90;;;;;;5052474;28;20025;-71
2022/08/21 03:46:56;;;;;;;4.97;2.22;;;13.00;99.90;;;;;;5054006;28;20025;-71
2022/08/21 03:49:21;;;;;;;7.70;2.05;;;13.00;99.90;;;;;;5053227;28;20052;-71
2022/08/21 03:51:47;;;;;;;7.32;1.85;;;12.90;99.90;;;;;;5053868;28;20067;-71
2022/08/21 03:54:13;;;;;;;3.90;1.30;;;13.00;99.90;;;;;;5053626;28;20057;-71
2022/08/21 03:56:39;;;;;;;4.65;1.67;;;12.90;99.90;;;;;;5053805;28;20430;-71
2022/08/21 03:59:05;;;;;;;4.10;1.75;;;12.90;99.90;;;;;;5053557;28;20479;-71
2022/08/21 04:01:31;;;;;;;4.75;1.92;;;12.90;99.90;;;;;;5053804;28;20025;-71
2022/08/21 04:03:56;;;;;;;4.38;1.73;;;12.90;99.90;;;;;;5053351;28;20025;-71
2022/08/21 04:06:22;;;;;;;3.58;1.67;;;12.90;99.90;;;;;;5053347;28;20096;-71
2022/08/21 04:08:47;;;;;;;7.35;1.90;;;12.80;99.90;;;;;;5053366;28;20103;-71
2022/08/21 04:11:14;;;;;;;4.82;1.98;;;12.80;99.90;;;;;;5053316;28;20053;-71
2022/08/21 04:13:40;;;;;;;5.40;2.17;;;12.80;99.90;;;;;;5053379;28;20488;-72
2022/08/21 04:16:06;;;;;;;4.30;1.77;;;12.70;99.90;;;;;;5053285;28;20059;-71
2022/08/21 04:18:32;;;;;;;5.45;2.25;;;12.70;99.90;;;;;;5053472;28;20108;-71
2022/08/21 04:21:01;;;;;;;5.03;1.45;;;12.70;99.90;;;;;;5053449;28;20506;-71
2022/08/21 04:23:27;;;;;;;3.75;2.17;;;12.70;99.90;;;;;;5052976;28;20036;-71
2022/08/21 04:25:55;;;;;;;6.85;2.15;;;12.70;99.90;;;;;;5051922;28;20532;-71
2022/08/21 04:28:22;;;;;;;7.07;2.65;;;12.70;99.90;;;;;;5051954;28;20075;-71
2022/08/21 04:30:48;;;;;;;8.32;2.97;;;12.70;99.90;;;;;;5053148;28;20389;-72
2022/08/21 04:33:14;;;;;;;8.48;3.45;;;12.70;99.90;;;;;;5053204;28;20029;-71
2022/08/21 04:35:40;;;;;;;4.28;2.38;;;12.70;99.90;;;;;;5053414;28;20029;-71
2022/08/21 04:38:05;;;;;;;8.23;2.90;;;12.80;99.90;;;;;;5051873;28;20481;-71
2022/08/21 04:40:31;;;;;;;6.10;2.47;;;12.80;99.90;;;;;;5052228;28;20078;-71
2022/08/21 04:43:01;;;;;;;7.05;2.70;;;12.80;99.90;;;;;;5053196;28;20051;-71
2022/08/21 04:45:31;;;;;;;4.93;2.78;;;12.80;99.90;;;;;;5055687;28;20025;-71
2022/08/21 04:47:59;;;;;;;8.02;3.60;;;12.90;99.90;;;;;;5057046;28;20479;-71
2022/08/21 04:50:38;;;;;;;6.73;2.93;;;12.90;99.90;;;;;;5055705;28;20020;-71
2022/08/21 04:53:11;;;;;;;6.97;2.75;;;12.90;99.90;;;;;;5057418;28;20259;-71
2022/08/21 04:55:38;;;;;;;8.27;3.33;;;12.90;99.90;;;;;;5057098;28;20032;-72
2022/08/21 04:58:06;;;;;;;8.23;2.92;;;13.00;99.90;;;;;;5057102;28;20478;-72
2022/08/21 05:00:32;;;;;;;6.32;3.03;;;13.00;99.90;;;;;;5056729;28;20041;-72
2022/08/21 05:02:59;;;;;;;7.57;3.17;;;13.10;99.90;;;;;;5056622;28;20110;-72
2022/08/21 05:05:27;;;;;;;6.55;2.42;;;13.10;99.90;;;;;;5056822;28;20078;-72
2022/08/21 05:07:53;;;;;;;12.43;3.70;;;13.10;99.90;;;;;;5055406;28;20377;-72
2022/08/21 05:10:19;;;;;;;6.15;3.03;;;13.20;99.90;;;;;;5056563;28;20109;-72
2022/08/21 05:12:45;;;;;;;10.35;3.22;;;13.20;99.90;;;;;;5056507;28;20108;-72
2022/08/21 05:15:12;;;;;;;7.00;3.03;;;13.30;99.90;;;;;;5056543;28;20045;-72
2022/08/21 05:17:38;;;;;;;7.63;2.58;;;13.40;99.90;;;;;;5056464;28;20033;-72
2022/08/21 05:20:05;;;;;;;7.75;3.47;;;13.40;99.90;;;;;;5056532;28;20032;-72
2022/08/21 05:22:30;;;;;;;4.10;2.53;;;13.50;99.90;;;;;;5056093;28;20033;-73
2022/08/21 05:24:57;;;;;;;8.88;3.08;;;13.60;99.90;;;;;;5056423;28;20433;-72
2022/08/21 05:27:22;;;;;;;8.05;2.83;;;13.70;99.90;;;;;;5056268;28;20033;-72
2022/08/21 05:29:48;;;;;;;7.03;2.75;;;13.70;99.90;;;;;;5056257;28;20021;-72
2022/08/21 05:32:17;;;;;;;10.73;2.65;;;13.80;99.90;;;;;;5054860;28;20086;-72
2022/08/21 05:34:43;;;;;;;5.05;3.08;;;13.90;99.90;;;;;;5056137;28;20021;-72
2022/08/21 05:37:11;;;;;;;11.90;3.58;;;14.10;99.90;;;;;;5056630;28;20032;-72
2022/08/21 05:39:37;;;;;;;5.90;2.63;;;14.10;99.90;;;;;;5056428;28;20024;-72
2022/08/21 05:42:03;;;;;;;9.27;3.08;;;14.30;99.90;;;;;;5056256;28;20440;-72
2022/08/21 05:44:28;;;;;;;11.10;3.05;;;14.30;99.90;;;;;;5055954;28;20021;-72
2022/08/21 05:46:54;;;;;;;8.07;3.17;;;14.40;99.90;;;;;;5056174;28;20071;-74
2022/08/21 05:49:22;;;;;;;6.13;2.35;;;14.50;99.90;;;;;;5055164;28;20049;-74
2022/08/21 05:51:48;;;;;;;5.03;2.20;;;14.60;99.90;;;;;;5056038;28;20044;-74
2022/08/21 05:54:13;;;;;;;6.38;2.78;;;14.80;99.90;;;;;;5054650;28;20139;-74
2022/08/21 05:56:39;;;;;;;13.02;2.92;;;14.80;99.90;;;;;;5055327;28;20040;-74
2022/08/21 05:59:05;;;;;;;5.22;1.92;;;14.90;99.90;;;;;;5054509;28;20033;-74
2022/08/21 06:01:30;;;;;;;8.23;2.03;;;15.00;99.90;;;;;;5056226;28;20083;-74
2022/08/21 06:03:56;;;;;;;4.60;1.92;;;15.20;99.90;;;;;;5055581;28;20029;-74
2022/08/21 06:06:21;;;;;;;5.68;2.20;;;15.30;99.90;;;;;;5055689;28;20087;-74
2022/08/21 06:08:47;;;;;;;6.05;2.20;;;15.50;99.90;;;;;;5055496;28;20478;-74
2022/08/21 06:11:12;;;;;;;7.63;2.30;;;15.60;99.90;;;;;;5055416;28;20025;-74
2022/08/21 06:13:38;;;;;;;7.10;2.22;;;15.80;99.90;;;;;;5055419;28;20075;-74
2022/08/21 06:16:11;;;;;;;6.85;1.88;;;15.90;99.90;;;;;;5055683;28;20050;-74
2022/08/21 06:18:37;;;;;;;4.85;1.60;;;16.00;99.90;;;;;;5055394;28;20024;-74
2022/08/21 06:21:04;;;;;;;7.78;2.00;;;16.10;99.90;;;;;;5055400;28;20021;-74
2022/08/21 06:23:30;;;;;;;4.38;1.58;;;16.30;99.90;;;;;;5053760;28;20059;-74
2022/08/21 06:25:56;;;;;;;5.97;1.60;;;16.40;99.90;;;;;;5055394;28;20017;-74
2022/08/21 06:28:21;;;;;;;7.25;1.77;;;16.50;99.90;;;;;;5055725;28;20024;-74
2022/08/21 06:30:47;;;;;;;3.03;1.02;;;16.60;99.90;;;;;;5055161;28;20032;-74
2022/08/21 06:33:13;;;;;;;3.90;0.70;;;16.70;99.90;;;;;;5055149;28;20025;-74
2022/08/21 06:35:38;;;;;;;5.35;2.22;;;16.90;99.90;;;;;;5054687;28;20091;-74
2022/08/21 06:38:04;;;;;;;9.23;1.73;;;17.00;99.90;;;;;;5055243;28;20021;-74
2022/08/21 06:40:30;;;;;;;4.78;1.70;;;17.20;99.90;;;;;;5054943;28;20378;-74
2022/08/21 06:43:04;;;;;;;4.55;1.70;;;17.30;99.90;;;;;;5054764;28;20151;-74
2022/08/21 06:45:29;;;;;;;4.82;1.08;;;17.30;99.90;;;;;;5055039;28;20021;-74
2022/08/21 06:47:55;;;;;;;3.00;0.57;;;17.50;99.90;;;;;;5054835;28;20032;-74
2022/08/21 06:50:21;;;;;;;10.10;1.35;;;17.60;99.90;;;;;;5055101;28;20017;-74
2022/08/21 06:52:46;;;;;;;7.97;1.33;;;17.70;99.90;;;;;;5053369;28;20024;-74
2022/08/21 06:55:12;;;;;;;4.10;0.80;;;17.80;99.90;;;;;;5054975;28;20025;-74
2022/08/21 06:57:37;;;;;;;7.72;1.15;;;17.90;99.90;;;;;;5055717;28;20032;-74
2022/08/21 07:00:06;;;;;;;5.93;0.88;;;17.90;99.90;;;;;;5054366;28;20107;-74
2022/08/21 07:02:33;;;;;;;5.07;0.80;;;17.90;99.90;;;;;;5054384;28;20359;-74
2022/08/21 07:04:59;;;;;;;4.07;1.05;;;18.00;99.90;;;;;;5054818;28;20017;-74
2022/08/21 07:07:25;;;;;;;17.42;1.85;;;18.10;99.90;;;;;;5053936;28;20028;-74
2022/08/21 07:09:50;;;;;;;7.55;1.02;;;18.30;99.90;;;;;;5053061;28;20017;-74
2022/08/21 07:12:16;;;;;;;7.28;0.80;;;18.30;99.90;;;;;;5054293;28;20017;-74
2022/08/21 07:14:42;;;;;;;9.23;1.02;;;18.50;99.90;;;;;;5054849;28;20107;-74
2022/08/21 07:17:08;;;;;;;7.47;1.20;;;18.60;99.90;;;;;;5029506;23;20402;-72
2022/08/21 07:19:33;;;;;;;7.63;1.77;;;18.70;99.90;;;;;;5014571;28;20093;-71
2022/08/21 07:22:01;;;;;;;5.55;1.00;;;18.80;99.90;;;;;;5014475;28;20030;-71
2022/08/21 07:24:28;;;;;;;13.65;2.28;;;18.80;99.90;;;;;;5013250;28;20120;-71
2022/08/21 07:26:53;;;;;;;12.88;2.35;;;18.90;99.90;;;;;;5014481;28;20083;-71
2022/08/21 07:29:19;;;;;;;6.03;0.93;;;19.00;99.90;;;;;;5014359;28;20452;-71
2022/08/21 07:31:45;;;;;;;10.80;1.55;;;19.10;99.90;;;;;;5014458;28;20022;-71
2022/08/21 07:34:10;;;;;;;6.15;1.40;;;19.10;99.90;;;;;;5014959;28;20026;-71
2022/08/21 07:36:36;;;;;;;3.28;0.65;;;19.30;99.90;;;;;;5014325;28;20037;-71
2022/08/21 07:39:02;;;;;;;4.63;0.95;;;19.30;99.90;;;;;;5012995;28;20026;-71
2022/08/21 07:41:29;;;;;;;7.75;1.10;;;19.30;99.90;;;;;;5014133;28;20049;-71
2022/08/21 07:43:58;;;;;;;6.35;0.40;;;19.50;99.90;;;;;;5014387;28;20442;-71
2022/08/21 07:46:25;;;;;;;4.40;1.02;;;19.60;99.90;;;;;;5014095;28;20093;-71
2022/08/21 07:48:52;;;;;;;6.95;1.42;;;19.60;99.90;;;;;;5014064;28;20364;-71
2022/08/21 07:51:25;;;;;;;10.50;1.45;;;19.60;99.90;;;;;;5014250;28;20026;-71
2022/08/21 07:53:54;;;;;;;6.72;1.10;;;19.60;99.90;;;;;;5014005;28;20030;-71
2022/08/21 07:56:20;;;;;;;6.43;1.30;;;19.70;99.90;;;;;;5013997;28;20423;-71
2022/08/21 07:58:46;;;;;;;6.78;1.48;;;19.70;99.90;;;;;;5013857;28;20026;-71
2022/08/21 08:01:12;;;;;;;7.28;1.45;;;19.80;99.90;;;;;;5014224;28;20483;-71
2022/08/21 08:03:38;;;;;;;9.00;1.38;;;19.90;99.90;;;;;;5013724;28;20030;-71
2022/08/21 08:06:04;;;;;;;3.92;0.85;;;20.00;99.90;;;;;;5014245;28;20029;-71
2022/08/21 08:08:30;;;;;;;5.15;1.08;;;20.10;99.90;;;;;;5013879;28;20022;-71
2022/08/21 08:10:57;;;;;;;5.93;1.33;;;20.30;99.90;;;;;;5012529;28;20064;-71
2022/08/21 08:13:23;;;;;;;9.48;1.92;;;20.40;99.90;;;;;;5013774;28;20030;-71
2022/08/21 08:15:49;;;;;;;6.18;1.23;;;20.50;99.90;;;;;;5012373;28;20137;-71
2022/08/21 08:18:14;;;;;;;6.57;0.70;;;20.50;99.90;;;;;;5014032;28;20046;-71
2022/08/21 08:20:40;;;;;;;5.50;1.23;;;20.50;99.90;;;;;;5013709;28;20037;-71
2022/08/21 08:23:07;;;;;;;5.85;1.35;;;20.50;99.90;;;;;;5013762;28;20434;-71
2022/08/21 08:25:32;;;;;;;10.68;0.63;;;20.50;99.90;;;;;;5013601;28;20022;-71
2022/08/21 08:27:58;;;;;;;6.03;1.40;;;20.40;99.90;;;;;;5013565;28;20501;-71
2022/08/21 08:30:23;;;;;;;4.60;1.10;;;20.50;99.90;;;;;;5012352;28;20430;-71
2022/08/21 08:32:49;;;;;;;5.90;0.77;;;20.50;99.90;;;;;;5013441;28;20026;-71
2022/08/21 08:35:15;;;;;;;3.85;0.98;;;20.60;99.90;;;;;;5013536;28;20104;-71
2022/08/21 08:37:42;;;;;;;4.85;0.65;;;20.50;99.90;;;;;;5013519;28;20064;-71
2022/08/21 08:40:23;;;;;;;6.00;1.10;;;20.30;99.90;;;;;;5013467;28;20025;-71
2022/08/21 08:42:50;;;;;;;4.18;0.93;;;20.50;99.90;;;;;;5013450;28;20030;-72
2022/08/21 08:45:21;;;;;;;2.22;0.45;;;20.70;99.90;;;;;;5013368;28;20532;-72
2022/08/21 08:47:57;;;;;;;6.15;0.80;;;20.90;99.90;;;;;;5012184;28;20086;-72
2022/08/21 08:50:49;;;;;;;7.00;1.00;;;21.10;99.90;;;;;;5013641;28;20586;-72
2022/08/21 08:54:07;;;;;;;5.18;1.50;;;21.00;99.90;;;;;;5013549;28;20034;-72
2022/08/21 08:56:34;;;;;;;5.70;0.70;;;21.00;99.90;;;;;;5004625;28;20076;-72
2022/08/21 08:59:19;;;;;;;4.35;0.57;;;21.40;99.90;;;;;;5013168;28;20033;-73
2022/08/21 09:01:45;;;;;;;4.07;0.47;;;21.50;99.90;;;;;;5013277;28;20395;-74
2022/08/21 09:04:14;;;;;;;6.55;0.90;;;21.60;99.90;;;;;;5013094;28;20022;-73
2022/08/21 09:06:49;;;;;;;3.83;0.47;;;21.70;99.90;;;;;;5013522;28;20022;-72
2022/08/21 09:09:44;;;;;;;9.85;0.77;;;21.50;99.90;;;;;;5013518;28;20014;-72
2022/08/21 09:12:29;;;;;;;7.00;1.25;;;21.70;99.90;;;;;;5011211;28;20125;-72
2022/08/21 09:15:09;;;;;;;5.22;0.93;;;22.00;99.90;;;;;;5013716;28;20018;-72
2022/08/21 09:17:55;;;;;;;5.97;0.52;;;22.30;99.90;;;;;;5013010;28;20376;-72
2022/08/21 09:20:38;;;;;;;2.22;0.60;;;22.60;99.90;;;;;;5013624;28;20507;-72
2022/08/21 09:23:19;;;;;;;3.05;0.63;;;22.90;99.90;;;;;;5012870;28;20026;-72
2022/08/21 09:26:06;;;;;;;5.05;0.30;;;23.10;99.90;;;;;;5013020;28;20030;-72
2022/08/21 09:28:34;;;;;;;4.10;0.25;;;23.40;99.90;;;;;;5012978;28;20037;-72
2022/08/21 09:31:03;;;;;;;10.88;1.98;;;23.80;99.90;;;;;;5014624;28;20029;-72
2022/08/21 09:33:29;;;;;;;4.03;0.20;;;24.10;99.90;;;;;;5016426;28;20029;-72
2022/08/21 09:35:59;;;;;;;5.82;1.00;;;24.30;99.90;;;;;;5016577;28;20018;-72
2022/08/21 09:38:31;;;;;;;8.35;0.60;;;24.10;99.90;;;;;;5016336;28;20479;-71
2022/08/21 09:41:00;;;;;;;6.38;0.55;;;23.90;99.90;;;;;;5016312;28;20022;-72
2022/08/21 09:43:27;;;;;;;6.68;0.45;;;23.60;99.90;;;;;;5014932;28;20040;-74
2022/08/21 09:46:09;;;;;;;1.30;0.45;;;23.60;99.90;;;;;;5016695;28;20028;-72
2022/08/21 09:48:45;;;;;;;1.25;0.00;;;23.50;99.90;;;;;;5016342;28;20140;-73
2022/08/21 09:51:24;;;;;;;3.80;0.05;;;23.30;99.90;;;;;;5016742;28;20022;-73
2022/08/21 09:54:05;;;;;;;3.40;0.28;;;23.20;99.90;;;;;;5016003;28;20084;-73
2022/08/21 09:59:34;;;;;;;5.95;0.10;;;23.10;99.90;;;;;;5016295;28;20594;-73
2022/08/21 10:02:13;;;;;;;3.72;0.73;;;23.00;99.90;;;;;;5016737;28;20483;-73
2022/08/21 10:04:39;;;;;;;3.70;0.25;;;22.90;99.90;;;;;;5016487;28;20371;-73
2022/08/21 10:07:14;;;;;;;6.28;0.20;;;23.10;99.90;;;;;;5015876;28;20018;-73
2022/08/21 10:09:41;;;;;;;4.72;0.43;;;23.30;99.90;;;;;;5015899;28;20076;-72
2022/08/21 10:12:17;;;;;;;7.13;0.65;;;23.50;99.90;;;;;;5016021;28;20044;-72
2022/08/21 10:14:59;;;;;;;3.50;0.10;;;23.70;99.90;;;;;;5014567;28;20018;-72
2022/08/21 10:17:43;;;;;;;3.50;0.10;;;23.90;99.90;;;;;;5015795;28;20383;-72
2022/08/21 10:20:22;;;;;;;5.88;0.45;;;23.90;99.90;;;;;;5014411;28;20475;-72
2022/08/21 10:23:07;;;;;;;2.10;0.05;;;23.60;99.90;;;;;;5015957;28;20034;-72
2022/08/21 10:26:00;;;;;;;2.28;0.20;;;23.50;99.90;;;;;;5015549;28;20097;-72
2022/08/21 10:28:45;;;;;;;2.97;0.45;;;23.30;99.90;;;;;;5014295;28;20064;-72
2022/08/21 10:31:17;;;;;;;3.38;0.35;;;23.20;99.90;;;;;;5014216;28;20087;-72
2022/08/21 10:34:10;;;;;;;5.65;0.55;;;23.00;99.90;;;;;;5015354;28;20026;-72
2022/08/21 10:36:45;;;;;;;1.08;0.15;;;23.10;99.90;;;;;;5015959;28;20022;-72
2022/08/21 10:39:19;;;;;;;3.42;0.45;;;23.40;99.90;;;;;;5015306;28;20025;-72
2022/08/21 10:41:45;;;;;;;1.95;0.10;;;23.70;99.90;;;;;;5015751;28;20480;-72
2022/08/21 10:44:43;;;;;;;3.90;0.10;;;23.90;99.90;;;;;;5014937;28;20033;-72
2022/08/21 10:47:26;;;;;;;4.18;0.25;;;24.10;99.90;;;;;;5015852;28;20372;-75
2022/08/21 10:50:03;;;;;;;1.02;0.17;;;24.50;99.90;;;;;;5015151;28;20053;-72
2022/08/21 10:53:02;;;;;;;2.58;0.08;;;24.70;99.90;;;;;;5013779;28;20487;-75
2022/08/21 10:55:36;;;;;;;4.43;0.30;;;24.90;99.90;;;;;;5015569;28;20029;-73
2022/08/21 10:58:21;;;;;;;3.17;0.57;;;25.00;99.90;;;;;;5015134;28;20037;-72
2022/08/21 11:00:50;;;;;;;4.18;0.73;;;25.00;99.10;;;;;;5015279;28;20540;-72
2022/08/21 11:03:45;;;;;;;3.78;0.35;;;25.10;99.00;;;;;;5013575;28;20032;-72
2022/08/21 11:06:27;;;;;;;6.65;0.57;;;25.20;98.70;;;;;;5014844;28;20024;-72
2022/08/21 11:08:59;;;;;;;2.95;0.15;;;25.20;98.30;;;;;;5014738;28;20426;-72
2022/08/21 11:11:35;;;;;;;2.95;0.38;;;25.30;97.80;;;;;;5015080;28;20029;-72
2022/08/21 11:14:12;;;;;;;1.80;0.17;;;25.20;97.90;;;;;;5014840;28;20033;-73
2022/08/21 11:16:50;;;;;;;3.33;0.47;;;25.40;98.70;;;;;;5014559;28;20038;-72
2022/08/21 11:19:28;;;;;;;2.85;0.50;;;25.70;99.90;;;;;;5014908;28;20261;-72
2022/08/21 11:22:01;;;;;;;4.65;0.10;;;25.50;99.60;;;;;;5013218;28;20438;-72
2022/08/21 11:25:01;;;;;;;3.83;0.00;;;25.40;99.90;;;;;;5015051;28;20022;-72
2022/08/21 11:27:39;;;;;;;4.30;0.45;;;25.10;99.90;;;;;;5014409;28;20025;-71
2022/08/21 11:30:06;;;;;;;2.65;0.30;;;24.90;99.90;;;;;;5013329;28;20029;-72
2022/08/21 11:32:44;;;;;;;3.35;0.60;;;24.90;99.90;;;;;;5015781;28;20030;-73
2022/08/21 11:35:43;;;;;;;6.10;0.40;;;25.00;99.90;;;;;;5016758;28;20022;-73
2022/08/21 11:38:35;;;;;;;2.30;0.17;;;25.00;99.90;;;;;;5014251;28;20025;-75
2022/08/21 11:41:11;;;;;;;4.65;0.20;;;25.10;99.90;;;;;;5014710;28;20097;-74
2022/08/21 11:43:46;;;;;;;1.50;0.00;;;25.40;99.90;;;;;;5014181;28;20026;-73
2022/08/21 11:46:53;;;;;;;4.63;0.20;;;25.90;99.40;;;;;;5013555;28;20029;-72
2022/08/21 11:49:29;;;;;;;6.28;0.55;;;26.40;99.20;;;;;;4984919;28;20390;-72
2022/08/21 11:52:19;;;;;;;3.00;0.00;;;26.80;96.60;;;;;;5014097;28;20471;-72
2022/08/21 11:55:07;;;;;;;2.35;0.15;;;26.40;96.90;;;;;;5013916;28;20026;-72
2022/08/21 11:57:54;;;;;;;2.30;0.17;;;26.40;97.40;;;;;;5014033;28;20081;-72
2022/08/21 12:00:24;;;;;;;4.40;0.40;;;26.60;96.80;;;;;;5014138;28;20030;-73
2022/08/21 12:02:56;;;;;;;3.65;0.00;;;26.40;96.00;;;;;;5013729;28;20356;-72
2022/08/21 12:05:30;;;;;;;4.03;0.40;;;26.10;95.40;;;;;;5013815;28;20109;-72
2022/08/21 12:08:07;;;;;;;8.40;0.20;;;26.00;96.30;;;;;;5013904;28;20533;-72
2022/08/21 12:10:42;;;;;;;2.17;0.00;;;26.10;95.00;;;;;;5014329;28;20411;-72
2022/08/21 12:13:30;;;;;;;3.00;0.00;;;26.50;94.80;;;;;;5012337;28;20024;-72
2022/08/21 12:16:28;;;;;;;1.38;0.00;;;26.70;95.50;;;;;;5013973;28;20038;-72
2022/08/21 12:19:23;;;;;;;0.95;0.00;;;27.10;94.30;;;;;;5014232;28;20028;-72
2022/08/21 12:22:03;;;;;;;0.93;0.10;;;27.00;92.60;;;;;;5002979;28;20129;-72
2022/08/21 12:24:41;;;;;;;5.18;0.43;;;26.60;94.20;;;;;;5013515;28;20115;-72
2022/08/21 12:27:29;;;;;;;2.20;0.00;;;26.20;92.40;;;;;;5014396;28;20037;-72
2022/08/21 12:30:05;;;;;;;4.88;0.65;;;25.60;94.00;;;;;;5013870;28;20475;-72
2022/08/21 12:32:58;;;;;;;2.28;0.55;;;25.70;94.90;;;;;;5012384;28;20037;-72
2022/08/21 12:35:43;;;;;;;2.42;0.57;;;26.00;93.40;;;;;;4986461;28;20030;-72
2022/08/21 12:38:28;;;;;;;5.00;0.25;;;26.10;95.10;;;;;;5013533;28;20026;-73
2022/08/21 12:40:59;;;;;;;2.42;0.15;;;26.10;94.70;;;;;;5012288;28;20060;-74
2022/08/21 12:43:35;;;;;;;2.95;0.00;;;26.50;96.70;;;;;;5013267;28;20030;-74
2022/08/21 12:46:04;;;;;;;5.55;0.35;;;27.00;95.00;;;;;;5013693;28;20036;-74
2022/08/21 12:48:48;;;;;;;2.13;0.05;;;27.10;93.50;;;;;;5012180;28;20483;-74
2022/08/21 12:51:17;;;;;;;4.55;0.20;;;27.20;94.30;;;;;;5013805;28;20033;-73
2022/08/21 12:53:53;;;;;;;2.50;0.00;;;27.00;92.80;;;;;;5013263;28;20030;-74
2022/08/21 12:56:23;;;;;;;2.22;0.00;;;27.10;93.70;;;;;;5014507;28;20045;-74
2022/08/21 12:58:55;;;;;;;2.47;0.10;;;27.50;92.40;;;;;;5013324;28;20021;-74
2022/08/21 13:01:26;;;;;;;3.13;0.10;;;27.40;92.70;;;;;;5013599;28;20034;-73
2022/08/21 13:03:55;;;;;;;2.78;0.30;;;26.90;91.40;;;;;;5013260;28;20029;-72
2022/08/21 13:06:23;;;;;;;4.10;0.20;;;26.40;91.60;;;;;;5015540;28;20026;-73
2022/08/21 13:08:57;;;;;;;3.47;0.20;;;26.00;92.30;;;;;;5016976;28;20033;-73